Terminal Aerodrome Forecast
Issued by NWS Upton, NY

Home | Current Version | Previous Version | Text Only | Print | Product List | Glossary On
Versions: 1 2 3 4 5 6 7 8 9 10 11 12 13 14 15 16 17 18 19 20 21 22 23 24 25 26 27 28 29 30 31 32 33 34 35 36 37 38 39 40 41 42 43 44 45 46 47
000
FTUS41 KOKX 200529
TAFLGA
TAF
KLGA 200529Z 2006/2112 14006KT P6SM SCT015 SCT100 BKN250
     FM200800 14005KT P6SM VCSH BKN010
     FM201000 13006KT P6SM VCSH SCT005 OVC010
      TEMPO 2010/2014 BKN005
     FM201400 14006KT 5SM -DZ BR VCSH SCT009 BKN015
     FM201900 14006KT 4SM -DZ BR SCT015 BKN020
     FM202300 VRB05KT 4SM BR SCT010 BKN015
     FM210200 VRB03KT 3SM BR OVC010=

USA.gov is the U.S. government's official web portal to all federal, state and local government web resources and services.